Glenville, WV (26351)

1:01 AM EDT on July 07, 2015 (GMT -0400)
Brooklyn Point | | Change Station
CLOSE
Current Station
Personal Weather Station
Location: Glenville, WV
Elevation: 732 ft
Nearby Weather Stations

Elev 732 ft 38.94 °N, 80.84 °W | Updated 11 minutes ago

Mostly Cloudy
Mostly Cloudy
69.4 °F
Feels Like 69.4 °F
N
0.0
Wind Variable Wind from East

Today
High -- | Low -- °F
--% Chance of Precip.
Yesterday
High -- | Low -- °F
Precip. -- in
6:04 AM 8:51 PM
Waning Gibbous, 68% visible
Pressure 30.10 in
Visibility 1.2 miles
Clouds Few 1100 ft
Scattered Clouds 2800 ft
Mostly Cloudy 6000 ft
Dew Point 68 °F
Humidity 97%
Rainfall in
Snow Depth Not available.
UV 0 out of 12
Pollen .50 out of 12
Air Quality Not available.
Flu Activity Not available.
METAR KW22 070435Z AUTO 00000KT 1 1/4SM BR FEW011 SCT028 BKN060 20/20 A3010 RMK AO2

More Conditions Fewer Conditions

Pressure 30.10 in
Visibility 1.2 miles
Clouds Few 1100 ft
Scattered Clouds 2800 ft
Mostly Cloudy 6000 ft
Dew Point 68 °F
Humidity 97%
Rainfall in
Snow Depth Not available.
UV 0 out of 12
Pollen .50 out of 12
Air Quality Not available.
Flu Activity Not available.
METAR KW22 070435Z AUTO 00000KT 1 1/4SM BR FEW011 SCT028 BKN060 20/20 A3010 RMK AO2

More Conditions Fewer Conditions

10-Day Weather Forecast

×

Almanac

Astronomy

Jul. 07, 2015 Rise Set
Actual Time
Civil Twilight
Nautical Twilight
Astronomical Twilight
Moon
Length of Visible Light
Length of Day
Tomorrow will be .
, % of the Moon is Illuminated

Today's Extremes

State Highs State Lows

Community

WunderPhotos

Upload Photos

1,835,731 photos uploaded!

WunderBlogs® & News

Nearby

Air Quality

  Air Quality AQ Index Pollutant
Not available.

Snow Depth

Station Depth Elevation

Earthquake Activity

City Distance Mag. Time & Date
Minimum magnitude displayed is 2.5.

Coastal Water Temperatures

Place Temperature

Stations

Nearby Weather Stations

Station Location Temp. Windchill Dew Point Humidity Wind Precip. Elev Updated Type